Terminal Aerodrome Forecast
Issued by NWS Cleveland, OH

Home | Current Version | Previous Version | Graphics & Text | Print | Product List | Glossary On
Versions: 1 2 3 4 5 6 7 8 9 10 11 12 13 14 15 16 17 18 19 20 21 22
549
FTUS41 KCLE 181045 AAA
TAFTOL
TAF AMD
KTOL 181045Z 1811/1906 24008KT P6SM SCT025 BKN050
      TEMPO 1813/1814 BKN025
     FM181400 25012G20KT P6SM BKN025 BKN040
     FM181700 27015G25KT P6SM BKN050
     FM182300 27010KT P6SM SCT120=

USA.gov is the U.S. government's official web portal to all federal, state and local government web resources and services.